RJSH(METAR)
12/04 19:00
METAR RJSH 041000Z 31008KT 270V350 9999 FEW020 SCT030 M01/M04 Q1020
RMK 1CU020 3CU030 A3013=
戻る
トップページへ戻る
IMOC Co,.Ltd.